createdAt,value
2023-05-05T00:00:45.220Z,10.15
2023-05-05T00:03:11.702Z,10.40
2023-05-05T00:05:38.123Z,10.07
2023-05-05T00:08:04.605Z,10.13
2023-05-05T00:10:31.043Z,9.90
2023-05-05T00:12:57.369Z,8.85
2023-05-05T00:15:23.795Z,10.20
2023-05-05T00:17:50.214Z,9.55
2023-05-05T00:20:16.643Z,9.25
2023-05-05T00:22:42.988Z,8.20
2023-05-05T00:25:09.455Z,7.55
2023-05-05T00:27:36.031Z,9.15
2023-05-05T00:30:02.556Z,8.10
2023-05-05T00:32:28.939Z,9.02
2023-05-05T00:34:56.188Z,9.27
2023-05-05T00:37:22.591Z,8.77
2023-05-05T00:39:48.949Z,9.15
2023-05-05T00:42:15.313Z,7.28
2023-05-05T00:44:42.273Z,6.72
2023-05-05T00:47:12.809Z,7.43
2023-05-05T00:49:39.547Z,6.28
2023-05-05T00:52:07.398Z,6.97
2023-05-05T00:54:37.522Z,7.15
2023-05-05T00:57:04.058Z,8.20
2023-05-05T00:59:31.210Z,7.47
2023-05-05T01:01:57.595Z,7.03
2023-05-05T01:04:24.711Z,7.38
2023-05-05T01:06:51.051Z,6.07
2023-05-05T01:09:36.398Z,6.50
2023-05-05T01:12:02.771Z,5.68
2023-05-05T01:14:37.494Z,6.38
2023-05-05T01:17:12.995Z,6.25
2023-05-05T01:19:50.999Z,5.82
2023-05-05T01:22:19.987Z,6.15
2023-05-05T01:25:04.916Z,6.65
2023-05-05T01:27:50.265Z,6.75
2023-05-05T01:30:31.173Z,7.80
2023-05-05T01:33:20.070Z,6.70
2023-05-05T01:35:48.382Z,6.80
2023-05-05T01:38:16.165Z,6.72
2023-05-05T01:43:10.788Z,6.15
2023-05-05T01:45:38.831Z,5.68
2023-05-05T01:48:06.526Z,6.18
2023-05-05T01:50:33.437Z,5.82
2023-05-05T01:53:01.420Z,6.70
2023-05-05T01:55:28.272Z,6.45
2023-05-05T01:57:55.977Z,6.95
2023-05-05T02:02:49.723Z,6.60
2023-05-05T02:05:19.259Z,6.80
2023-05-05T02:07:46.132Z,7.50
2023-05-05T02:10:13.486Z,6.55
2023-05-05T02:12:40.947Z,5.93
2023-05-05T02:15:08.155Z,5.63
2023-05-05T02:17:34.591Z,6.30
2023-05-05T02:20:01.944Z,6.32
2023-05-05T02:22:28.436Z,5.78
2023-05-05T02:24:54.894Z,5.75
2023-05-05T02:27:23.011Z,6.13
2023-05-05T02:29:51.968Z,5.68
2023-05-05T02:32:20.381Z,5.65
2023-05-05T02:34:47.994Z,5.45
2023-05-05T02:37:17.957Z,6.60
2023-05-05T02:40:04.870Z,5.90
2023-05-05T02:42:33.934Z,5.72
2023-05-05T02:45:04.495Z,5.60
2023-05-05T02:47:37.534Z,4.80
2023-05-05T02:50:05.281Z,5.50
2023-05-05T02:54:58.526Z,5.80
2023-05-05T02:57:37.525Z,6.50
2023-05-05T03:00:22.394Z,6.72
2023-05-05T03:03:01.069Z,6.50
2023-05-05T03:05:34.950Z,7.00
2023-05-05T03:08:14.032Z,7.47
2023-05-05T03:10:45.055Z,7.15
2023-05-05T03:13:12.115Z,7.07
2023-05-05T03:15:41.499Z,8.02
2023-05-05T03:18:08.837Z,7.75
2023-05-05T03:20:35.251Z,7.80
2023-05-05T03:23:02.506Z,7.70
2023-05-05T03:25:41.584Z,7.63
2023-05-05T03:28:07.974Z,7.80
2023-05-05T03:30:34.360Z,7.25
2023-05-05T03:33:00.704Z,7.43
2023-05-05T03:35:27.132Z,7.75
2023-05-05T03:37:55.451Z,7.40
2023-05-05T03:40:29.699Z,5.97
2023-05-05T03:43:02.938Z,5.45
2023-05-05T03:45:29.380Z,4.43
2023-05-05T03:47:55.804Z,4.28
2023-05-05T03:50:24.292Z,3.35
2023-05-05T03:52:50.632Z,3.38
2023-05-05T03:55:16.967Z,3.30
2023-05-05T03:57:43.360Z,3.60
2023-05-05T04:00:12.697Z,3.45
2023-05-05T04:02:39.144Z,3.92
2023-05-05T04:05:05.590Z,4.47
2023-05-05T04:07:31.987Z,4.93
2023-05-05T04:09:58.350Z,4.68
2023-05-05T04:12:24.790Z,5.05
2023-05-05T04:14:51.272Z,4.72
2023-05-05T04:17:17.640Z,4.93
2023-05-05T04:19:44.037Z,4.65
2023-05-05T04:22:10.445Z,4.30
2023-05-05T04:24:37.266Z,4.10
2023-05-05T04:27:03.680Z,4.18
2023-05-05T04:29:30.040Z,4.35
2023-05-05T04:31:56.816Z,3.90
2023-05-05T04:34:23.215Z,4.20
2023-05-05T04:36:49.637Z,4.13
2023-05-05T04:39:16.054Z,4.30
2023-05-05T04:41:42.385Z,4.10
2023-05-05T04:44:08.755Z,4.82
2023-05-05T04:46:35.207Z,4.05
2023-05-05T04:49:03.374Z,4.07
2023-05-05T04:51:29.699Z,4.30
2023-05-05T04:53:56.043Z,4.80
2023-05-05T04:56:22.419Z,4.68
2023-05-05T04:58:49.689Z,4.60
2023-05-05T05:01:16.807Z,5.05
2023-05-05T05:03:43.253Z,5.10
2023-05-05T05:06:09.681Z,6.20
2023-05-05T05:08:36.524Z,5.82
2023-05-05T05:11:02.915Z,6.45
2023-05-05T05:13:29.272Z,5.97
2023-05-05T05:15:55.691Z,6.13
2023-05-05T05:18:22.046Z,5.72
2023-05-05T05:20:48.352Z,6.63
2023-05-05T05:23:14.690Z,6.47
2023-05-05T05:25:41.138Z,6.60
2023-05-05T05:28:10.774Z,7.28
2023-05-05T05:30:37.501Z,6.57
2023-05-05T05:33:04.026Z,6.95
2023-05-05T05:35:31.514Z,7.10
2023-05-05T05:37:57.895Z,7.50
2023-05-05T05:40:24.304Z,7.57
2023-05-05T05:42:50.763Z,8.57
2023-05-05T05:45:17.149Z,7.78
2023-05-05T05:47:43.594Z,8.20
2023-05-05T05:50:10.305Z,8.30
2023-05-05T05:52:37.070Z,8.27
2023-05-05T05:55:03.611Z,8.85
2023-05-05T05:57:29.975Z,8.38
2023-05-05T05:59:56.523Z,7.95
2023-05-05T06:02:23.005Z,9.15
2023-05-05T06:04:49.470Z,9.77
2023-05-05T06:07:15.901Z,9.90
2023-05-05T06:09:42.276Z,9.63
2023-05-05T06:12:08.685Z,10.10
2023-05-05T06:14:35.100Z,9.52
2023-05-05T06:17:01.483Z,10.00
2023-05-05T06:19:27.883Z,9.80
2023-05-05T06:21:54.224Z,8.68
2023-05-05T06:24:20.547Z,8.38
2023-05-05T06:26:46.904Z,8.20
2023-05-05T06:29:13.291Z,7.57
2023-05-05T06:31:39.707Z,7.35
2023-05-05T06:34:06.115Z,6.57
2023-05-05T06:36:32.522Z,6.50
2023-05-05T06:38:58.925Z,6.25
2023-05-05T06:41:25.350Z,5.32
2023-05-05T06:43:51.671Z,4.75
2023-05-05T06:46:18.183Z,4.95
2023-05-05T06:48:44.856Z,4.90
2023-05-05T06:51:11.206Z,4.93
2023-05-05T06:53:37.642Z,5.00
2023-05-05T06:56:04.099Z,5.05
2023-05-05T06:58:31.609Z,4.53
2023-05-05T07:00:57.966Z,4.50
2023-05-05T07:03:24.939Z,4.50
2023-05-05T07:05:51.493Z,4.75
2023-05-05T07:08:17.870Z,3.85
2023-05-05T07:10:44.326Z,4.53
2023-05-05T07:13:10.809Z,3.78
2023-05-05T07:15:37.300Z,4.65
2023-05-05T07:18:03.685Z,4.20
2023-05-05T07:20:30.058Z,4.47
2023-05-05T07:22:56.397Z,4.15
2023-05-05T07:25:22.719Z,4.47
2023-05-05T07:27:49.141Z,4.80
2023-05-05T07:30:18.382Z,4.22
2023-05-05T07:32:45.808Z,4.50
2023-05-05T07:35:12.320Z,4.18
2023-05-05T07:37:38.654Z,4.30
2023-05-05T07:40:05.384Z,4.38
2023-05-05T07:42:31.787Z,4.93
2023-05-05T07:44:58.374Z,3.67
2023-05-05T07:47:24.948Z,3.50
2023-05-05T07:49:51.416Z,3.85
2023-05-05T07:52:17.856Z,3.97
2023-05-05T07:54:45.269Z,3.38
2023-05-05T07:57:11.821Z,3.42
2023-05-05T07:59:41.085Z,3.53
2023-05-05T08:02:07.551Z,3.63
2023-05-05T08:04:33.958Z,3.67
2023-05-05T08:07:00.395Z,3.42
2023-05-05T08:09:26.726Z,2.88
2023-05-05T08:11:53.058Z,2.80
2023-05-05T08:14:19.512Z,2.83
2023-05-05T08:16:45.937Z,2.88
2023-05-05T08:19:21.568Z,2.83
2023-05-05T08:21:56.066Z,2.60
2023-05-05T08:26:49.154Z,3.30
2023-05-05T08:29:15.566Z,3.10
2023-05-05T08:31:41.933Z,3.60
2023-05-05T08:34:08.391Z,2.97
2023-05-05T08:36:34.772Z,2.80
2023-05-05T08:39:01.458Z,2.95
2023-05-05T08:41:27.977Z,2.43
2023-05-05T08:43:54.535Z,2.08
2023-05-05T08:46:21.263Z,2.28
2023-05-05T08:48:48.815Z,2.45
2023-05-05T08:53:58.692Z,2.40
2023-05-05T08:56:26.822Z,1.90
2023-05-05T08:58:53.199Z,2.53
2023-05-05T09:01:20.130Z,2.05
2023-05-05T09:03:46.837Z,1.83
2023-05-05T09:06:13.329Z,2.08
2023-05-05T09:08:39.867Z,2.07
2023-05-05T09:11:06.274Z,1.97
2023-05-05T09:13:32.828Z,2.03
2023-05-05T09:15:59.776Z,2.07
2023-05-05T09:18:26.268Z,1.60
2023-05-05T09:20:52.649Z,1.93
2023-05-05T09:23:19.968Z,2.03
2023-05-05T09:28:16.746Z,2.03
2023-05-05T09:30:47.219Z,2.15
2023-05-05T09:33:14.025Z,2.08
2023-05-05T09:35:50.894Z,1.83
2023-05-05T09:38:17.978Z,2.00
2023-05-05T09:40:45.897Z,2.13
2023-05-05T09:43:12.260Z,2.00
2023-05-05T09:45:38.600Z,2.20
2023-05-05T09:48:06.265Z,1.70
2023-05-05T09:50:43.745Z,1.85
2023-05-05T09:53:10.814Z,1.50
2023-05-05T09:55:38.044Z,1.70
2023-05-05T09:58:17.420Z,1.80
2023-05-05T10:00:43.784Z,1.38
2023-05-05T10:03:10.333Z,1.33
2023-05-05T10:05:47.036Z,1.20
2023-05-05T10:08:13.727Z,1.42
2023-05-05T10:11:07.006Z,1.40
2023-05-05T10:13:36.042Z,1.45
2023-05-05T10:16:03.556Z,1.30
2023-05-05T10:18:31.563Z,1.63
2023-05-05T10:20:59.119Z,1.40
2023-05-05T10:23:38.150Z,1.20
2023-05-05T10:26:09.128Z,1.02
2023-05-05T10:28:44.747Z,1.35
2023-05-05T10:31:25.167Z,0.95
2023-05-05T10:33:55.898Z,1.00
2023-05-05T10:36:23.481Z,1.02
2023-05-05T10:38:50.425Z,0.98
2023-05-05T10:41:18.463Z,1.20
2023-05-05T10:43:45.925Z,1.13
2023-05-05T10:46:12.545Z,1.65
2023-05-05T10:48:44.999Z,1.80
2023-05-05T10:51:39.473Z,1.90
2023-05-05T10:54:16.585Z,1.75
2023-05-05T10:56:43.412Z,1.92
2023-05-05T10:59:28.600Z,2.30
2023-05-05T11:01:55.025Z,2.70
2023-05-05T11:04:22.384Z,2.40
2023-05-05T11:07:07.222Z,2.17
2023-05-05T11:09:37.032Z,1.83
2023-05-05T11:12:04.698Z,2.78
2023-05-05T11:14:31.228Z,2.83
2023-05-05T11:16:57.629Z,2.87
2023-05-05T11:19:42.519Z,2.10
2023-05-05T11:22:09.306Z,2.25
2023-05-05T11:24:39.899Z,2.30
2023-05-05T11:27:06.552Z,2.40
2023-05-05T11:29:53.142Z,2.75
2023-05-05T11:32:19.999Z,2.15
2023-05-05T11:34:50.154Z,2.78
2023-05-05T11:37:17.133Z,2.30
2023-05-05T11:39:55.737Z,2.65
2023-05-05T11:42:28.587Z,2.15
2023-05-05T11:44:55.245Z,2.42
2023-05-05T11:47:21.637Z,2.10
2023-05-05T11:49:49.467Z,2.70
2023-05-05T11:52:16.027Z,2.17
2023-05-05T11:54:47.821Z,2.17
2023-05-05T11:57:20.944Z,2.40
2023-05-05T11:59:53.140Z,2.40
2023-05-05T12:02:19.921Z,2.92
2023-05-05T12:04:47.239Z,2.33
2023-05-05T12:07:17.330Z,2.50
2023-05-05T12:09:46.952Z,2.50
2023-05-05T12:12:13.860Z,2.78
2023-05-05T12:14:52.927Z,2.50
2023-05-05T12:17:20.498Z,2.53
2023-05-05T12:19:54.092Z,2.22
2023-05-05T12:22:21.593Z,2.58
2023-05-05T12:24:55.143Z,2.45
2023-05-05T12:27:21.655Z,2.60
2023-05-05T12:29:48.089Z,2.13
2023-05-05T12:32:40.675Z,2.30
2023-05-05T12:35:07.785Z,2.20
2023-05-05T12:37:34.276Z,2.33
2023-05-05T12:40:00.639Z,2.08
2023-05-05T12:42:26.990Z,2.20
2023-05-05T12:44:53.316Z,2.17
2023-05-05T12:47:30.358Z,2.00
2023-05-05T12:49:57.202Z,2.60
2023-05-05T12:54:54.887Z,2.17
2023-05-05T12:57:21.998Z,1.85
2023-05-05T12:59:48.481Z,1.90
2023-05-05T13:02:15.157Z,2.08
2023-05-05T13:07:09.949Z,2.58
2023-05-05T13:09:36.633Z,2.00
2023-05-05T13:12:03.859Z,2.05
2023-05-05T13:14:33.084Z,1.60
2023-05-05T13:16:59.477Z,1.63
2023-05-05T13:19:25.894Z,1.45
2023-05-05T13:21:52.746Z,1.63
2023-05-05T13:24:28.781Z,1.63
2023-05-05T13:27:04.946Z,1.55
2023-05-05T13:29:31.886Z,1.70
2023-05-05T13:31:58.426Z,1.77
2023-05-05T13:36:51.886Z,1.83
2023-05-05T13:39:18.742Z,1.80
2023-05-05T13:41:45.399Z,1.90
2023-05-05T13:46:38.037Z,2.05
2023-05-05T13:49:04.482Z,1.95
2023-05-05T13:51:30.916Z,2.53
2023-05-05T13:53:57.367Z,2.60
2023-05-05T13:56:26.192Z,2.17
2023-05-05T13:58:52.708Z,2.22
2023-05-05T14:01:19.269Z,2.50
2023-05-05T14:03:45.732Z,2.85
2023-05-05T14:06:12.135Z,2.75
2023-05-05T14:08:38.574Z,2.70
2023-05-05T14:11:04.996Z,2.37
2023-05-05T14:13:31.329Z,2.45
2023-05-05T14:15:58.421Z,2.13
2023-05-05T14:18:25.349Z,1.98
2023-05-05T14:20:51.754Z,2.10
2023-05-05T14:23:18.178Z,2.60
2023-05-05T14:25:44.534Z,2.28
2023-05-05T14:28:11.048Z,2.58
2023-05-05T14:33:03.688Z,2.50
2023-05-05T14:35:31.097Z,1.90
2023-05-05T14:37:57.435Z,2.38
2023-05-05T14:40:23.765Z,2.03
2023-05-05T14:42:50.855Z,2.20
2023-05-05T14:45:17.311Z,2.42
2023-05-05T14:47:43.692Z,2.45
2023-05-05T14:50:10.264Z,1.90
2023-05-05T14:52:38.981Z,2.35
2023-05-05T14:55:05.764Z,1.75
2023-05-05T14:57:32.288Z,1.95
2023-05-05T14:59:58.630Z,2.38
2023-05-05T15:02:25.022Z,2.37
2023-05-05T15:04:52.936Z,1.98
2023-05-05T15:07:20.415Z,2.08
2023-05-05T15:09:46.835Z,2.10
2023-05-05T15:12:13.162Z,1.75
2023-05-05T15:14:39.939Z,2.07
2023-05-05T15:17:06.553Z,2.00
2023-05-05T15:19:32.967Z,1.77
2023-05-05T15:21:59.381Z,2.23
2023-05-05T15:24:26.236Z,1.60
2023-05-05T15:29:18.938Z,1.63
2023-05-05T15:31:45.400Z,1.90
2023-05-05T15:34:11.834Z,1.23
2023-05-05T15:36:38.175Z,1.33
2023-05-05T15:39:04.659Z,1.50
2023-05-05T15:41:33.530Z,1.55
2023-05-05T15:44:00.780Z,1.00
2023-05-05T15:46:27.170Z,1.52
2023-05-05T15:48:53.575Z,1.10
2023-05-05T15:51:19.913Z,1.58
2023-05-05T15:53:46.458Z,1.42
2023-05-05T15:56:12.794Z,1.23
2023-05-05T15:58:39.123Z,1.35
2023-05-05T16:01:05.629Z,1.43
2023-05-05T16:03:32.187Z,1.10
2023-05-05T16:05:58.652Z,1.40
2023-05-05T16:08:24.997Z,1.75
2023-05-05T16:10:51.365Z,1.40
2023-05-05T16:13:17.813Z,1.48
2023-05-05T16:15:44.763Z,1.40
2023-05-05T16:18:11.889Z,1.60
2023-05-05T16:20:38.451Z,2.00
2023-05-05T16:23:04.826Z,1.13
2023-05-05T16:25:31.177Z,1.70
2023-05-05T16:27:57.639Z,1.33
2023-05-05T16:30:24.196Z,1.70
2023-05-05T16:32:51.774Z,1.53
2023-05-05T16:35:18.208Z,1.80
2023-05-05T16:37:44.739Z,1.95
2023-05-05T16:40:11.520Z,1.63
2023-05-05T16:42:37.859Z,1.92
2023-05-05T16:45:04.432Z,1.90
2023-05-05T16:47:30.813Z,2.03
2023-05-05T16:49:57.358Z,2.00
2023-05-05T16:52:23.694Z,1.95
2023-05-05T16:54:55.490Z,2.05
2023-05-05T16:57:22.402Z,2.30
2023-05-05T16:59:49.145Z,2.40
2023-05-05T17:02:15.687Z,2.30
2023-05-05T17:04:42.061Z,2.20
2023-05-05T17:07:08.381Z,2.50
2023-05-05T17:09:34.782Z,2.58
2023-05-05T17:12:01.150Z,1.98
2023-05-05T17:14:27.674Z,2.22
2023-05-05T17:16:54.516Z,2.70
2023-05-05T17:19:21.280Z,2.42
2023-05-05T17:21:47.658Z,2.30
2023-05-05T17:24:14.097Z,2.35
2023-05-05T17:26:41.585Z,2.95
2023-05-05T17:29:08.197Z,2.22
2023-05-05T17:31:34.614Z,2.55
2023-05-05T17:34:01.013Z,3.00
2023-05-05T17:36:27.334Z,3.03
2023-05-05T17:38:53.668Z,3.00
2023-05-05T17:41:20.234Z,3.05
2023-05-05T17:43:46.776Z,2.92
2023-05-05T17:46:13.186Z,2.97
2023-05-05T17:48:39.544Z,2.45
2023-05-05T17:51:05.929Z,2.67
2023-05-05T17:53:32.415Z,3.00
2023-05-05T17:55:58.772Z,2.85
2023-05-05T17:58:25.136Z,3.40
2023-05-05T18:00:51.504Z,3.28
2023-05-05T18:03:17.988Z,3.38
2023-05-05T18:05:44.373Z,2.83
2023-05-05T18:08:11.201Z,3.13
2023-05-05T18:10:38.663Z,3.13
2023-05-05T18:13:05.069Z,3.33
2023-05-05T18:15:31.531Z,3.95
2023-05-05T18:17:57.926Z,3.05
2023-05-05T18:20:24.310Z,3.25
2023-05-05T18:22:50.940Z,3.38
2023-05-05T18:25:17.335Z,3.28
2023-05-05T18:27:44.426Z,3.25
2023-05-05T18:30:11.151Z,3.08
2023-05-05T18:32:37.837Z,3.35
2023-05-05T18:35:04.327Z,3.13
2023-05-05T18:37:30.675Z,3.60
2023-05-05T18:39:56.993Z,3.67
2023-05-05T18:42:23.352Z,3.85
2023-05-05T18:44:49.736Z,4.35
2023-05-05T18:47:16.207Z,5.05
2023-05-05T18:49:43.636Z,4.50
2023-05-05T18:52:10.020Z,4.38
2023-05-05T18:54:37.802Z,4.30
2023-05-05T18:57:04.781Z,3.53
2023-05-05T18:59:31.479Z,3.50
2023-05-05T19:01:57.880Z,3.33
2023-05-05T19:04:30.814Z,4.30
2023-05-05T19:06:57.939Z,4.25
2023-05-05T19:09:24.281Z,3.75
2023-05-05T19:11:50.940Z,3.72
2023-05-05T19:14:17.711Z,4.55
2023-05-05T19:16:44.344Z,4.00
2023-05-05T19:19:13.777Z,4.25
2023-05-05T19:21:40.168Z,4.25
2023-05-05T19:24:07.197Z,3.97
2023-05-05T19:26:33.589Z,5.10
2023-05-05T19:29:00.114Z,4.60
2023-05-05T19:31:27.900Z,3.80
2023-05-05T19:33:58.903Z,3.80
2023-05-05T19:36:25.892Z,5.10
2023-05-05T19:38:52.305Z,4.70
2023-05-05T19:41:18.652Z,4.20
2023-05-05T19:43:47.774Z,4.57
2023-05-05T19:46:14.517Z,3.90
2023-05-05T19:48:41.334Z,3.30
2023-05-05T19:51:07.720Z,4.75
2023-05-05T19:53:34.057Z,3.65
2023-05-05T19:56:00.633Z,4.05
2023-05-05T19:58:27.055Z,3.90
2023-05-05T20:00:53.441Z,3.70
2023-05-05T20:03:19.858Z,4.72
2023-05-05T20:05:46.411Z,3.95
2023-05-05T20:08:12.768Z,4.85
2023-05-05T20:10:39.145Z,4.20
2023-05-05T20:13:05.693Z,4.20
2023-05-05T20:15:33.391Z,3.65
2023-05-05T20:17:59.815Z,4.65
2023-05-05T20:20:26.261Z,4.18
2023-05-05T20:22:52.988Z,3.85
2023-05-05T20:25:19.409Z,5.07
2023-05-05T20:27:46.051Z,4.53
2023-05-05T20:30:12.991Z,4.82
2023-05-05T20:32:39.741Z,5.90
2023-05-05T20:35:06.412Z,4.77
2023-05-05T20:37:33.134Z,4.60
2023-05-05T20:39:59.460Z,5.32
2023-05-05T20:42:27.609Z,5.07
2023-05-05T20:44:54.100Z,5.43
2023-05-05T20:47:20.635Z,5.88
2023-05-05T20:49:47.015Z,6.28
2023-05-05T20:52:13.349Z,5.38
2023-05-05T20:54:39.777Z,5.68
2023-05-05T20:57:07.142Z,5.65
2023-05-05T20:59:33.589Z,5.53
2023-05-05T21:01:59.982Z,5.05
2023-05-05T21:04:26.447Z,6.05
2023-05-05T21:06:52.785Z,5.32
2023-05-05T21:09:21.330Z,5.45
2023-05-05T21:11:48.736Z,5.00
2023-05-05T21:14:15.101Z,4.93
2023-05-05T21:16:42.496Z,4.78
2023-05-05T21:19:08.952Z,5.65
2023-05-05T21:21:35.438Z,5.72
2023-05-05T21:24:02.103Z,5.05
2023-05-05T21:26:28.534Z,5.80
2023-05-05T21:28:54.964Z,4.88
2023-05-05T21:31:22.779Z,5.50
2023-05-05T21:33:49.601Z,5.45
2023-05-05T21:36:17.580Z,5.70
2023-05-05T21:38:43.948Z,6.20
2023-05-05T21:41:10.375Z,5.28
2023-05-05T21:43:36.812Z,4.13
2023-05-05T21:46:04.094Z,5.65
2023-05-05T21:48:31.350Z,5.85
2023-05-05T21:50:58.223Z,5.93
2023-05-05T21:53:24.856Z,5.57
2023-05-05T21:55:51.649Z,5.93
2023-05-05T21:58:17.992Z,5.32
2023-05-05T22:00:44.983Z,5.32
2023-05-05T22:03:11.574Z,5.65
2023-05-05T22:05:38.285Z,4.75
2023-05-05T22:08:04.871Z,4.88
2023-05-05T22:10:31.288Z,5.03
2023-05-05T22:12:58.163Z,5.70
2023-05-05T22:15:27.636Z,4.80
2023-05-05T22:17:56.477Z,4.55
2023-05-05T22:20:22.871Z,5.13
2023-05-05T22:22:49.197Z,5.15
2023-05-05T22:25:15.640Z,5.10
2023-05-05T22:27:41.973Z,5.22
2023-05-05T22:30:08.873Z,5.30
2023-05-05T22:32:35.306Z,5.33
2023-05-05T22:35:01.803Z,5.35
2023-05-05T22:37:28.148Z,5.53
2023-05-05T22:39:54.502Z,4.78
2023-05-05T22:42:20.910Z,4.70
2023-05-05T22:44:47.254Z,5.05
2023-05-05T22:47:13.646Z,5.03
2023-05-05T22:49:40.149Z,5.30
2023-05-05T22:52:06.549Z,5.40
2023-05-05T22:54:32.993Z,6.03
2023-05-05T22:56:59.348Z,4.57
2023-05-05T22:59:25.682Z,4.85
2023-05-05T23:01:52.110Z,5.05
2023-05-05T23:04:18.476Z,4.38
2023-05-05T23:06:45.030Z,5.28
2023-05-05T23:09:11.383Z,5.10
2023-05-05T23:11:37.738Z,5.43
2023-05-05T23:14:04.110Z,4.72
2023-05-05T23:16:30.735Z,4.57
2023-05-05T23:18:57.094Z,4.43
2023-05-05T23:21:23.417Z,4.93
2023-05-05T23:23:49.746Z,4.63
2023-05-05T23:26:16.089Z,5.22
2023-05-05T23:28:42.490Z,5.13
2023-05-05T23:31:09.040Z,5.32
2023-05-05T23:33:35.392Z,5.40
2023-05-05T23:36:01.760Z,5.30
2023-05-05T23:38:28.128Z,4.75
2023-05-05T23:40:54.549Z,6.22
2023-05-05T23:43:20.925Z,6.25
2023-05-05T23:45:47.319Z,5.97
2023-05-05T23:48:13.718Z,6.43
2023-05-05T23:50:40.034Z,5.88
2023-05-05T23:53:06.432Z,6.43
2023-05-05T23:55:32.806Z,5.68
2023-05-05T23:57:59.149Z,5.90
